createdAt,value
2018-08-25T00:02:07.459Z,9.90
2018-08-25T00:04:36.004Z,9.90
2018-08-25T00:07:05.700Z,10.00
2018-08-25T00:09:34.349Z,9.90
2018-08-25T00:12:02.893Z,9.80
2018-08-25T00:14:31.460Z,9.80
2018-08-25T00:17:00.098Z,9.70
2018-08-25T00:19:28.945Z,9.60
2018-08-25T00:21:57.624Z,9.50
2018-08-25T00:24:26.142Z,9.50
2018-08-25T00:26:55.091Z,9.40
2018-08-25T00:29:23.727Z,9.30
2018-08-25T00:31:52.655Z,9.30
2018-08-25T00:34:22.222Z,9.20
2018-08-25T00:36:51.004Z,9.20
2018-08-25T00:39:19.780Z,9.20
2018-08-25T00:41:48.792Z,9.20
2018-08-25T00:44:17.278Z,9.20
2018-08-25T00:46:45.826Z,9.30
2018-08-25T00:49:14.677Z,9.30
2018-08-25T00:51:43.670Z,9.20
2018-08-25T00:54:12.176Z,9.10
2018-08-25T00:56:40.895Z,9.10
2018-08-25T00:59:09.472Z,9.10
2018-08-25T01:01:38.935Z,9.00
2018-08-25T01:04:07.867Z,8.90
2018-08-25T01:06:36.399Z,8.90
2018-08-25T01:09:06.375Z,8.90
2018-08-25T01:11:34.948Z,8.90
2018-08-25T01:14:03.756Z,8.90
2018-08-25T01:16:32.287Z,8.80
2018-08-25T01:19:00.939Z,8.90
2018-08-25T01:21:29.560Z,8.80
2018-08-25T01:23:58.883Z,8.80
2018-08-25T01:26:27.529Z,8.70
2018-08-25T01:28:56.204Z,8.70
2018-08-25T01:31:27.548Z,8.70
2018-08-25T01:33:56.724Z,8.70
2018-08-25T01:36:25.831Z,8.70
2018-08-25T01:38:54.389Z,8.80
2018-08-25T01:41:23.293Z,8.80
2018-08-25T01:43:51.840Z,8.80
2018-08-25T01:46:20.699Z,8.80
2018-08-25T01:48:49.354Z,8.90
2018-08-25T01:51:17.901Z,8.80
2018-08-25T01:53:46.449Z,8.70
2018-08-25T01:56:15.045Z,8.70
2018-08-25T01:58:43.596Z,8.60
2018-08-25T02:01:12.096Z,8.60
2018-08-25T02:03:41.474Z,8.60
2018-08-25T02:06:10.668Z,8.60
2018-08-25T02:08:39.846Z,8.60
2018-08-25T02:11:09.033Z,8.60
2018-08-25T02:13:38.160Z,8.60
2018-08-25T02:16:07.487Z,8.60
2018-08-25T02:18:36.197Z,8.60
2018-08-25T02:21:04.983Z,8.50
2018-08-25T02:23:34.342Z,8.50
2018-08-25T02:26:03.092Z,8.60
2018-08-25T02:28:32.637Z,8.50
2018-08-25T02:31:01.173Z,8.60
2018-08-25T02:33:29.723Z,8.60
2018-08-25T02:35:58.375Z,8.70
2018-08-25T02:38:27.729Z,8.80
2018-08-25T02:40:56.854Z,8.80
2018-08-25T02:43:25.968Z,8.80
2018-08-25T02:45:54.598Z,8.80
2018-08-25T02:48:23.229Z,8.80
2018-08-25T02:50:51.832Z,8.80
2018-08-25T02:53:20.956Z,8.90
2018-08-25T02:55:50.355Z,8.80
2018-08-25T02:58:19.267Z,8.80
2018-08-25T03:00:48.820Z,8.90
2018-08-25T03:03:17.527Z,8.80
2018-08-25T03:05:46.013Z,8.90
2018-08-25T03:08:14.619Z,8.90
2018-08-25T03:10:43.138Z,9.00
2018-08-25T03:13:11.797Z,9.00
2018-08-25T03:15:40.339Z,9.00
2018-08-25T03:18:08.988Z,9.10
2018-08-25T03:20:37.648Z,9.00
2018-08-25T03:23:06.986Z,9.00
2018-08-25T03:25:35.503Z,9.00
2018-08-25T03:28:04.120Z,9.00
2018-08-25T03:30:33.118Z,9.00
2018-08-25T03:33:02.883Z,9.10
2018-08-25T03:35:31.635Z,9.10
2018-08-25T03:38:00.099Z,9.10
2018-08-25T03:40:29.358Z,9.20
2018-08-25T03:42:58.186Z,9.20
2018-08-25T03:45:26.944Z,9.20
2018-08-25T03:47:55.565Z,9.30
2018-08-25T03:50:24.400Z,9.30
2018-08-25T03:52:53.805Z,9.30
2018-08-25T03:55:22.494Z,9.30
2018-08-25T03:57:50.984Z,9.30
2018-08-25T04:00:20.334Z,9.30
2018-08-25T04:02:49.718Z,9.30
2018-08-25T04:05:18.316Z,9.30
2018-08-25T04:07:46.893Z,9.30
2018-08-25T04:10:16.220Z,9.30
2018-08-25T04:12:44.780Z,9.40
2018-08-25T04:15:13.287Z,9.40
2018-08-25T04:17:41.861Z,9.50
2018-08-25T04:20:10.372Z,9.50
2018-08-25T04:22:39.082Z,9.50
2018-08-25T04:25:07.822Z,9.60
2018-08-25T04:27:36.280Z,9.60
2018-08-25T04:30:05.676Z,9.70
2018-08-25T04:32:34.155Z,9.70
2018-08-25T04:35:02.760Z,9.70
2018-08-25T04:37:31.448Z,9.70
2018-08-25T04:40:00.168Z,9.70
2018-08-25T04:42:28.728Z,9.80
2018-08-25T04:44:57.968Z,9.80
2018-08-25T04:47:26.599Z,9.80
2018-08-25T04:49:55.168Z,9.80
2018-08-25T04:52:24.388Z,9.80
2018-08-25T04:54:53.516Z,9.90
2018-08-25T04:57:22.580Z,9.90
2018-08-25T04:59:51.136Z,9.80
2018-08-25T05:02:19.664Z,9.90
2018-08-25T05:04:48.248Z,9.90
2018-08-25T05:07:16.824Z,10.00
2018-08-25T05:09:45.937Z,10.00
2018-08-25T05:12:14.544Z,10.00
2018-08-25T05:14:43.120Z,10.00
2018-08-25T05:17:11.916Z,10.00
2018-08-25T05:19:40.389Z,10.10
2018-08-25T05:22:08.885Z,10.10
2018-08-25T05:24:38.284Z,10.10
2018-08-25T05:27:07.040Z,10.20
2018-08-25T05:29:35.641Z,10.20
2018-08-25T05:32:04.984Z,10.20
2018-08-25T05:34:33.503Z,10.30
2018-08-25T05:37:02.177Z,10.40
2018-08-25T05:39:31.731Z,10.40
2018-08-25T05:42:01.216Z,10.50
2018-08-25T05:44:30.058Z,10.50
2018-08-25T05:46:58.938Z,10.60
2018-08-25T05:49:27.523Z,10.70
2018-08-25T05:51:56.915Z,10.70
2018-08-25T05:54:25.930Z,10.80
2018-08-25T05:56:54.775Z,10.80
2018-08-25T05:59:23.942Z,10.90
2018-08-25T06:01:52.523Z,10.90
2018-08-25T06:04:21.232Z,11.00
2018-08-25T06:06:50.052Z,11.10
2018-08-25T06:09:18.561Z,11.10
2018-08-25T06:11:47.190Z,11.20
2018-08-25T06:14:15.940Z,11.30
2018-08-25T06:16:44.622Z,11.40
2018-08-25T06:19:13.375Z,11.50
2018-08-25T06:21:42.597Z,11.70
2018-08-25T06:24:12.179Z,11.80
2018-08-25T06:26:40.972Z,11.90
2018-08-25T06:29:10.249Z,12.00
2018-08-25T06:31:39.352Z,12.10
2018-08-25T06:34:08.618Z,12.10
2018-08-25T06:36:37.374Z,12.10
2018-08-25T06:39:07.993Z,12.20
2018-08-25T06:41:36.913Z,12.40
2018-08-25T06:44:06.014Z,12.30
2018-08-25T06:46:34.900Z,12.30
2018-08-25T06:49:03.539Z,12.30
2018-08-25T06:51:32.785Z,12.40
2018-08-25T06:54:02.107Z,12.40
2018-08-25T06:56:30.657Z,12.50
2018-08-25T06:58:59.272Z,12.60
2018-08-25T07:01:28.132Z,12.70
2018-08-25T07:03:58.439Z,12.90
2018-08-25T07:06:27.536Z,13.10
2018-08-25T07:08:56.025Z,12.90
2018-08-25T07:11:24.631Z,13.00
2018-08-25T07:13:54.015Z,13.10
2018-08-25T07:16:22.835Z,13.10
2018-08-25T07:18:51.755Z,13.20
2018-08-25T07:21:20.277Z,13.20
2018-08-25T07:23:48.805Z,13.30
2018-08-25T07:26:17.503Z,13.40
2018-08-25T07:28:46.100Z,13.50
2018-08-25T07:31:15.016Z,13.50
2018-08-25T07:33:44.128Z,13.50
2018-08-25T07:36:13.407Z,13.70
2018-08-25T07:38:42.050Z,13.70
2018-08-25T07:41:10.820Z,13.70
2018-08-25T07:43:39.391Z,13.70
2018-08-25T07:46:08.086Z,13.70
2018-08-25T07:48:37.280Z,13.80
2018-08-25T07:51:06.033Z,13.80
2018-08-25T07:53:34.842Z,13.90
2018-08-25T07:56:03.702Z,13.90
2018-08-25T07:58:32.545Z,14.00
2018-08-25T08:01:00.922Z,13.90
2018-08-25T08:03:29.877Z,14.00
2018-08-25T08:05:59.381Z,14.20
2018-08-25T08:08:27.944Z,14.30
2018-08-25T08:10:56.663Z,14.50
2018-08-25T08:13:25.473Z,14.50
2018-08-25T08:15:54.150Z,14.50
2018-08-25T08:18:23.629Z,14.50
2018-08-25T08:20:52.156Z,14.30
2018-08-25T08:23:20.751Z,14.40
2018-08-25T08:25:49.457Z,14.60
2018-08-25T08:28:18.540Z,14.60
2018-08-25T08:30:47.088Z,14.70
2018-08-25T08:33:15.767Z,14.80
2018-08-25T08:35:45.107Z,14.90
2018-08-25T08:38:13.846Z,15.00
2018-08-25T08:40:42.408Z,15.20
2018-08-25T08:43:10.960Z,14.80
2018-08-25T08:45:39.565Z,14.80
2018-08-25T08:48:08.260Z,14.70
2018-08-25T08:50:37.284Z,14.70
2018-08-25T08:53:05.892Z,14.70
2018-08-25T08:55:34.681Z,14.60
2018-08-25T08:58:04.233Z,14.80
2018-08-25T09:00:32.862Z,14.80
2018-08-25T09:03:02.619Z,14.80
2018-08-25T09:05:31.377Z,14.70
2018-08-25T09:07:59.967Z,14.70
2018-08-25T09:10:28.426Z,14.80
2018-08-25T09:12:57.069Z,14.70
2018-08-25T09:15:25.596Z,14.70
2018-08-25T09:17:54.832Z,14.70
2018-08-25T09:20:24.212Z,14.60
2018-08-25T09:22:53.001Z,14.60
2018-08-25T09:25:21.560Z,14.60
2018-08-25T09:27:50.677Z,14.50
2018-08-25T09:30:20.047Z,14.60
2018-08-25T09:32:49.032Z,14.80
2018-08-25T09:35:17.709Z,14.80
2018-08-25T09:37:46.285Z,14.90
2018-08-25T09:40:15.040Z,15.00
2018-08-25T09:42:47.151Z,15.10
2018-08-25T09:45:15.903Z,15.20
2018-08-25T09:47:44.548Z,15.00
2018-08-25T09:50:13.151Z,14.80
2018-08-25T09:52:41.717Z,14.90
2018-08-25T09:55:10.240Z,14.60
2018-08-25T09:57:39.478Z,14.70
2018-08-25T10:00:10.064Z,14.80
2018-08-25T10:02:38.688Z,14.70
2018-08-25T10:18:12.224Z,14.80
2018-08-25T10:20:40.940Z,14.70
2018-08-25T10:23:09.456Z,14.60
2018-08-25T10:25:38.127Z,14.70
2018-08-25T10:28:06.765Z,14.70
2018-08-25T10:30:35.508Z,14.70
2018-08-25T10:33:04.260Z,14.80
2018-08-25T10:35:32.835Z,15.00
2018-08-25T10:38:02.097Z,14.90
2018-08-25T10:40:31.628Z,15.00
2018-08-25T10:43:00.728Z,15.00
2018-08-25T10:45:29.634Z,14.90
2018-08-25T10:47:58.792Z,14.90
2018-08-25T10:50:28.012Z,14.90
2018-08-25T10:52:56.670Z,14.80
2018-08-25T10:55:25.642Z,14.60
2018-08-25T10:57:54.328Z,14.50
2018-08-25T11:00:22.996Z,14.40
2018-08-25T11:02:51.876Z,14.50
2018-08-25T11:05:20.741Z,14.50
2018-08-25T11:07:49.988Z,14.30
2018-08-25T11:10:18.586Z,14.50
2018-08-25T11:12:47.529Z,14.40
2018-08-25T11:15:16.205Z,14.40
2018-08-25T11:17:44.757Z,14.30
2018-08-25T11:20:13.735Z,14.40
2018-08-25T11:22:43.172Z,14.50
2018-08-25T11:25:11.883Z,14.70
2018-08-25T11:27:40.482Z,14.60
2018-08-25T11:30:09.300Z,14.70
2018-08-25T11:32:41.028Z,14.90
2018-08-25T11:35:09.716Z,14.90
2018-08-25T11:37:38.437Z,15.20
2018-08-25T11:40:07.889Z,15.40
2018-08-25T11:42:36.573Z,15.60
2018-08-25T11:45:06.372Z,15.80
2018-08-25T11:47:35.668Z,15.70
2018-08-25T11:50:04.735Z,15.50
2018-08-25T11:52:33.964Z,15.40
2018-08-25T11:55:03.193Z,15.20
2018-08-25T11:57:31.968Z,14.90
2018-08-25T12:00:01.053Z,14.70
2018-08-25T12:02:30.043Z,14.60
2018-08-25T12:04:58.697Z,14.70
2018-08-25T12:07:27.358Z,14.60
2018-08-25T12:09:56.034Z,14.60
2018-08-25T12:12:24.665Z,14.50
2018-08-25T12:14:54.068Z,14.60
2018-08-25T12:17:22.667Z,14.60
2018-08-25T12:19:51.464Z,14.60
2018-08-25T12:22:20.281Z,14.60
2018-08-25T12:24:49.099Z,14.50
2018-08-25T12:27:18.180Z,14.50
2018-08-25T12:29:46.977Z,14.60
2018-08-25T12:32:15.640Z,14.70
2018-08-25T12:34:44.416Z,14.70
2018-08-25T12:37:13.164Z,14.70
2018-08-25T12:39:41.852Z,14.90
2018-08-25T12:42:10.787Z,15.20
2018-08-25T12:44:39.468Z,15.60
2018-08-25T12:47:08.058Z,16.10
2018-08-25T12:49:36.760Z,16.60
2018-08-25T12:52:06.779Z,17.10
2018-08-25T12:54:35.414Z,17.70
2018-08-25T12:57:04.289Z,17.60
2018-08-25T12:59:32.793Z,17.60
2018-08-25T13:02:02.057Z,17.50
2018-08-25T13:04:30.674Z,17.40
2018-08-25T13:06:59.852Z,16.80
2018-08-25T13:09:29.291Z,16.50
2018-08-25T13:11:58.297Z,16.10
2018-08-25T13:14:26.857Z,15.80
2018-08-25T13:16:56.037Z,15.80
2018-08-25T13:19:24.906Z,15.70
2018-08-25T13:21:54.346Z,15.80
2018-08-25T13:24:23.040Z,15.90
2018-08-25T13:26:52.890Z,15.80
2018-08-25T13:29:21.605Z,15.80
2018-08-25T13:31:50.097Z,15.30
2018-08-25T13:34:18.741Z,15.20
2018-08-25T13:36:48.046Z,15.00
2018-08-25T13:39:17.348Z,14.80
2018-08-25T13:41:46.319Z,14.60
2018-08-25T13:44:15.032Z,14.50
2018-08-25T13:46:43.916Z,14.50
2018-08-25T13:49:12.753Z,14.60
2018-08-25T13:51:41.399Z,14.60
2018-08-25T13:54:10.213Z,14.60
2018-08-25T13:56:38.781Z,14.50
2018-08-25T13:59:07.580Z,14.60
2018-08-25T14:01:36.940Z,14.60
2018-08-25T14:04:06.217Z,14.70
2018-08-25T14:06:35.007Z,14.80
2018-08-25T14:09:05.032Z,14.70
2018-08-25T14:11:33.706Z,14.50
2018-08-25T14:14:02.485Z,14.30
2018-08-25T14:16:31.182Z,14.40
2018-08-25T14:19:00.706Z,14.60
2018-08-25T14:21:29.673Z,14.90
2018-08-25T14:23:58.403Z,15.10
2018-08-25T14:26:27.372Z,15.20
2018-08-25T14:28:56.774Z,15.50
2018-08-25T14:31:25.688Z,15.90
2018-08-25T14:33:55.035Z,16.00
2018-08-25T14:36:24.077Z,16.00
2018-08-25T14:38:53.278Z,16.30
2018-08-25T14:41:22.056Z,16.80
2018-08-25T14:43:50.861Z,17.10
2018-08-25T14:46:19.541Z,17.60
2018-08-25T14:48:49.413Z,17.90
2018-08-25T14:51:18.038Z,17.90
2018-08-25T14:53:46.608Z,18.00
2018-08-25T14:56:15.871Z,17.60
2018-08-25T14:58:44.703Z,17.30
2018-08-25T15:01:13.328Z,17.30
2018-08-25T15:03:42.099Z,17.10
2018-08-25T15:06:10.767Z,17.00
2018-08-25T15:08:40.037Z,16.80
2018-08-25T15:11:09.556Z,16.40
2018-08-25T15:13:38.152Z,16.10
2018-08-25T15:16:06.743Z,15.90
2018-08-25T15:18:35.951Z,15.90
2018-08-25T15:21:05.412Z,15.80
2018-08-25T15:23:34.084Z,15.90
2018-08-25T15:26:03.641Z,15.60
2018-08-25T15:28:32.233Z,15.50
2018-08-25T15:31:01.122Z,15.30
2018-08-25T15:33:30.325Z,15.20
2018-08-25T15:35:58.900Z,14.90
2018-08-25T15:38:27.506Z,14.90
2018-08-25T15:40:56.136Z,14.90
2018-08-25T15:43:25.516Z,15.00
2018-08-25T15:45:54.202Z,15.10
2018-08-25T15:48:22.954Z,15.00
2018-08-25T15:50:51.673Z,15.00
2018-08-25T15:53:20.308Z,15.20
2018-08-25T15:55:49.540Z,15.00
2018-08-25T15:58:18.201Z,15.10
2018-08-25T16:00:46.836Z,15.30
2018-08-25T16:03:15.469Z,15.30
2018-08-25T16:05:44.375Z,15.30
2018-08-25T16:08:12.933Z,15.20
2018-08-25T16:10:41.923Z,15.10
2018-08-25T16:13:11.380Z,15.30
2018-08-25T16:15:40.256Z,15.30
2018-08-25T16:18:08.786Z,15.10
2018-08-25T16:20:37.323Z,15.00
2018-08-25T16:23:06.331Z,14.90
2018-08-25T16:25:34.882Z,14.90
2018-08-25T16:28:03.570Z,15.00
2018-08-25T16:30:32.183Z,15.10
2018-08-25T16:33:00.840Z,15.10
2018-08-25T16:35:29.445Z,15.10
2018-08-25T16:37:58.087Z,14.90
2018-08-25T16:40:26.603Z,14.90
2018-08-25T16:42:55.140Z,15.10
2018-08-25T16:45:24.217Z,15.10
2018-08-25T16:47:52.947Z,15.20
2018-08-25T16:50:22.115Z,15.20
2018-08-25T16:52:50.730Z,15.20
2018-08-25T16:55:19.478Z,15.30
2018-08-25T16:57:48.013Z,15.40
2018-08-25T17:00:16.717Z,15.30
2018-08-25T17:02:45.388Z,15.30
2018-08-25T17:05:15.094Z,15.20
2018-08-25T17:07:43.596Z,15.00
2018-08-25T17:10:12.544Z,15.00
2018-08-25T17:12:41.682Z,15.00
2018-08-25T17:15:10.305Z,14.80
2018-08-25T17:17:38.814Z,14.90
2018-08-25T17:20:07.518Z,14.80
2018-08-25T17:22:36.215Z,14.80
2018-08-25T17:25:04.959Z,14.80
2018-08-25T17:27:34.383Z,14.80
2018-08-25T17:30:03.180Z,14.60
2018-08-25T17:32:31.859Z,14.40
2018-08-25T17:35:00.446Z,14.50
2018-08-25T17:37:29.232Z,14.50
2018-08-25T17:39:58.270Z,14.40
2018-08-25T17:42:27.089Z,14.40
2018-08-25T17:44:55.801Z,14.30
2018-08-25T17:47:24.897Z,14.30
2018-08-25T17:49:54.064Z,14.30
2018-08-25T17:52:23.504Z,14.50
2018-08-25T17:54:52.435Z,14.50
2018-08-25T17:57:21.958Z,14.30
2018-08-25T17:59:51.138Z,14.30
2018-08-25T18:02:20.080Z,14.20
2018-08-25T18:04:48.806Z,14.00
2018-08-25T18:07:17.790Z,13.80
2018-08-25T18:09:46.484Z,13.70
2018-08-25T18:12:15.162Z,13.60
2018-08-25T18:14:43.941Z,13.40
2018-08-25T18:17:12.756Z,13.30
2018-08-25T18:19:42.097Z,13.10
2018-08-25T18:22:10.958Z,12.90
2018-08-25T18:24:39.948Z,12.70
2018-08-25T18:27:08.646Z,12.60
2018-08-25T18:29:37.814Z,12.40
2018-08-25T18:32:07.453Z,12.20
2018-08-25T18:34:35.959Z,12.00
2018-08-25T18:37:05.764Z,11.70
2018-08-25T18:39:34.804Z,11.60
2018-08-25T18:42:03.853Z,11.50
2018-08-25T18:44:33.208Z,11.30
2018-08-25T18:47:02.405Z,11.10
2018-08-25T18:49:30.939Z,11.00
2018-08-25T18:52:00.076Z,10.90
2018-08-25T18:54:29.256Z,10.70
2018-08-25T18:56:58.263Z,10.60
2018-08-25T18:59:27.192Z,10.60
2018-08-25T19:01:57.177Z,10.50
2018-08-25T19:04:27.374Z,10.40
2018-08-25T19:06:57.261Z,10.40
2018-08-25T19:09:26.067Z,10.40
2018-08-25T19:11:54.985Z,10.30
2018-08-25T19:14:23.927Z,10.20
2018-08-25T19:16:53.672Z,10.10
2018-08-25T19:19:22.971Z,10.00
2018-08-25T19:21:52.785Z,9.80
2018-08-25T19:24:21.928Z,9.70
2018-08-25T19:26:51.166Z,9.60
2018-08-25T19:29:20.386Z,9.50
2018-08-25T19:31:49.686Z,9.40
2018-08-25T19:34:18.770Z,9.30
2018-08-25T19:36:48.054Z,9.20
2018-08-25T19:39:17.154Z,9.10
2018-08-25T19:41:46.452Z,9.10
2018-08-25T19:44:15.760Z,9.00
2018-08-25T19:46:45.284Z,8.90
2018-08-25T19:49:14.967Z,9.00
2018-08-25T19:51:44.361Z,8.90
2018-08-25T19:54:13.608Z,8.90
2018-08-25T19:56:42.561Z,9.00
2018-08-25T19:59:12.076Z,8.90
2018-08-25T20:01:41.009Z,8.80
2018-08-25T20:04:10.036Z,8.60
2018-08-25T20:06:38.730Z,8.50
2018-08-25T20:09:08.300Z,8.40
2018-08-25T20:11:37.628Z,8.40
2018-08-25T20:14:07.000Z,8.20
2018-08-25T20:16:36.544Z,8.10
2018-08-25T20:19:05.494Z,8.00
2018-08-25T20:21:34.950Z,8.00
2018-08-25T20:24:04.565Z,8.00
2018-08-25T20:26:33.153Z,7.90
2018-08-25T20:29:02.487Z,7.90
2018-08-25T20:31:31.702Z,7.80
2018-08-25T20:34:01.069Z,7.70
2018-08-25T20:36:30.339Z,7.70
2018-08-25T20:38:59.410Z,7.70
2018-08-25T20:41:28.481Z,7.70
2018-08-25T20:43:57.112Z,7.80
2018-08-25T20:46:25.699Z,8.00
2018-08-25T20:48:54.340Z,7.90
2018-08-25T20:51:23.141Z,7.80
2018-08-25T20:53:51.700Z,7.70
2018-08-25T20:56:21.296Z,7.40
2018-08-25T20:58:50.012Z,7.40
2018-08-25T21:01:18.729Z,7.40
2018-08-25T21:03:47.977Z,7.40
2018-08-25T21:06:16.491Z,7.30
2018-08-25T21:08:45.368Z,7.30
2018-08-25T21:11:14.328Z,7.30
2018-08-25T21:13:42.851Z,7.30
2018-08-25T21:16:11.533Z,7.40
2018-08-25T21:18:40.329Z,7.40
2018-08-25T21:21:09.034Z,7.30
2018-08-25T21:23:38.176Z,7.30
2018-08-25T21:26:08.033Z,7.20
2018-08-25T21:28:36.876Z,7.10
2018-08-25T21:31:06.460Z,7.10
2018-08-25T21:33:35.076Z,7.20
2018-08-25T21:36:03.613Z,7.10
2018-08-25T21:38:32.173Z,7.10
2018-08-25T21:41:00.988Z,6.90
2018-08-25T21:43:29.625Z,6.90
2018-08-25T21:45:58.721Z,6.90
2018-08-25T21:48:27.848Z,6.90
2018-08-25T21:50:56.625Z,6.90
2018-08-25T21:53:25.329Z,6.90
2018-08-25T21:55:54.511Z,6.80
2018-08-25T21:58:23.297Z,6.60
2018-08-25T22:00:56.150Z,6.70
2018-08-25T22:03:26.232Z,6.70
2018-08-25T22:05:56.226Z,6.70
2018-08-25T22:08:25.523Z,6.70
2018-08-25T22:10:54.684Z,6.60
2018-08-25T22:13:23.307Z,6.50
2018-08-25T22:15:52.033Z,6.50
2018-08-25T22:18:21.532Z,6.40
2018-08-25T22:20:50.053Z,6.40
2018-08-25T22:23:18.870Z,6.30
2018-08-25T22:25:48.228Z,6.30
2018-08-25T22:28:16.874Z,6.30
2018-08-25T22:30:45.428Z,6.20
2018-08-25T22:33:14.333Z,6.20
2018-08-25T22:35:43.712Z,6.30
2018-08-25T22:38:12.412Z,6.30
2018-08-25T22:40:41.679Z,6.30
2018-08-25T22:43:10.308Z,6.30
2018-08-25T22:45:38.891Z,6.20
2018-08-25T22:48:08.160Z,6.20
2018-08-25T22:50:37.717Z,6.10
2018-08-25T22:53:06.281Z,6.10
2018-08-25T22:55:35.527Z,6.10
2018-08-25T22:58:04.177Z,6.00
2018-08-25T23:00:33.389Z,6.00
2018-08-25T23:03:02.197Z,6.00
2018-08-25T23:05:30.782Z,6.00
2018-08-25T23:07:59.268Z,5.90
2018-08-25T23:10:28.218Z,5.90
2018-08-25T23:12:57.561Z,6.00
2018-08-25T23:15:26.798Z,5.90
2018-08-25T23:17:56.172Z,6.00
2018-08-25T23:20:24.701Z,6.00
2018-08-25T23:22:53.340Z,6.00
2018-08-25T23:25:22.766Z,5.90
2018-08-25T23:27:52.103Z,5.90
2018-08-25T23:30:20.925Z,5.90
2018-08-25T23:32:49.360Z,5.90
2018-08-25T23:35:18.543Z,6.00
2018-08-25T23:37:47.064Z,5.80
2018-08-25T23:40:15.733Z,5.70
2018-08-25T23:42:44.347Z,5.80
2018-08-25T23:45:13.199Z,5.80
2018-08-25T23:47:41.851Z,5.80
2018-08-25T23:50:11.048Z,5.80
2018-08-25T23:52:40.360Z,5.70
2018-08-25T23:55:09.419Z,5.60
2018-08-25T23:57:38.124Z,5.60
